ASA42 PASI-PAJN
Flight info
| Callsign | ASA42 |
|---|---|
| Flight time | 0h 21m |
| Altitude | 13000 |
| Route | HAWRD5 TNAKY |
| Aircraft | B38M/M-SDE1FGHILORVWXY/HB1 |
Departure
| Time | 2026-04-25 07:11 |
|---|---|
| Airport | Sitka Rocky Gutierrez Airport (PASI) |
Arrival
| Time | 2026-04-25 07:32 |
|---|---|
| Airport | Juneau International Airport (PAJN) |
| Time | Latitude | Longitude | Altitude | Speed | Heading |
|---|---|---|---|---|---|
| 2026-04-25 06:46 | 57.05236 | -135.36605 | 43 ft | 0 kts | 76° |
| 2026-04-25 07:02 | 57.05234 | -135.36621 | 42 ft | 3 kts | 76° |
| 2026-04-25 07:02 | 57.05229 | -135.36657 | 42 ft | 3 kts | 76° |
| 2026-04-25 07:03 | 57.05224 | -135.36693 | 41 ft | 3 kts | 76° |
| 2026-04-25 07:03 | 57.05219 | -135.36729 | 41 ft | 3 kts | 75° |
| 2026-04-25 07:03 | 57.05216 | -135.36752 | 40 ft | 0 kts | 75° |
| 2026-04-25 07:06 | 57.05216 | -135.36746 | 40 ft | 1 kts | 91° |
| 2026-04-25 07:06 | 57.05188 | -135.36710 | 40 ft | 11 kts | 172° |
| 2026-04-25 07:07 | 57.05132 | -135.36638 | 38 ft | 14 kts | 131° |
| 2026-04-25 07:07 | 57.05052 | -135.36493 | 38 ft | 18 kts | 138° |
| 2026-04-25 07:07 | 57.04977 | -135.36358 | 38 ft | 12 kts | 139° |
| 2026-04-25 07:07 | 57.04904 | -135.36306 | 37 ft | 14 kts | 173° |
| 2026-04-25 07:08 | 57.04786 | -135.36279 | 31 ft | 20 kts | 150° |
| 2026-04-25 07:08 | 57.04675 | -135.36094 | 31 ft | 23 kts | 135° |
| 2026-04-25 07:08 | 57.04555 | -135.35870 | 30 ft | 26 kts | 138° |
| 2026-04-25 07:08 | 57.04424 | -135.35639 | 29 ft | 27 kts | 136° |
| 2026-04-25 07:09 | 57.04286 | -135.35391 | 28 ft | 29 kts | 135° |
| 2026-04-25 07:09 | 57.04143 | -135.35135 | 27 ft | 29 kts | 135° |
| 2026-04-25 07:09 | 57.04027 | -135.34952 | 29 ft | 11 kts | 154° |
| 2026-04-25 07:09 | 57.04020 | -135.34918 | 28 ft | 1 kts | 48° |
| 2026-04-25 07:10 | 57.04029 | -135.34922 | 29 ft | 2 kts | 336° |
| 2026-04-25 07:10 | 57.04045 | -135.34954 | 28 ft | 6 kts | 314° |
| 2026-04-25 07:10 | 57.04091 | -135.35038 | 26 ft | 16 kts | 315° |
| 2026-04-25 07:10 | 57.04321 | -135.35454 | 28 ft | 90 kts | 315° |
| 2026-04-25 07:11 | 57.04949 | -135.36587 | 126 ft | 152 kts | 315° |
| 2026-04-25 07:11 | 57.05688 | -135.38090 | 950 ft | 163 kts | 313° |
| 2026-04-25 07:11 | 57.06539 | -135.39604 | 1741 ft | 180 kts | 315° |
| 2026-04-25 07:11 | 57.07460 | -135.41494 | 2354 ft | 215 kts | 310° |
| 2026-04-25 07:12 | 57.08442 | -135.43681 | 3383 ft | 233 kts | 310° |
| 2026-04-25 07:12 | 57.10821 | -135.48386 | 5308 ft | 258 kts | 320° |
| 2026-04-25 07:12 | 57.12220 | -135.50500 | 6478 ft | 264 kts | 319° |
| 2026-04-25 07:13 | 57.13706 | -135.52573 | 7518 ft | 271 kts | 330° |
| 2026-04-25 07:13 | 57.15531 | -135.53504 | 8597 ft | 279 kts | 356° |
| 2026-04-25 07:13 | 57.17474 | -135.52986 | 9609 ft | 287 kts | 14° |
| 2026-04-25 07:13 | 57.19429 | -135.51986 | 10533 ft | 297 kts | 13° |
| 2026-04-25 07:14 | 57.21489 | -135.50938 | 11115 ft | 317 kts | 14° |
| 2026-04-25 07:14 | 57.23662 | -135.49816 | 11789 ft | 331 kts | 14° |
| 2026-04-25 07:14 | 57.25911 | -135.48648 | 12541 ft | 341 kts | 14° |
| 2026-04-25 07:14 | 57.28205 | -135.47449 | 12871 ft | 343 kts | 15° |
| 2026-04-25 07:15 | 57.30513 | -135.46240 | 12976 ft | 348 kts | 15° |
| 2026-04-25 07:15 | 57.32855 | -135.45010 | 12984 ft | 351 kts | 15° |
| 2026-04-25 07:15 | 57.35211 | -135.43770 | 12987 ft | 352 kts | 15° |
| 2026-04-25 07:15 | 57.37567 | -135.42528 | 13001 ft | 352 kts | 15° |
| 2026-04-25 07:16 | 57.39921 | -135.41285 | 12992 ft | 352 kts | 15° |
| 2026-04-25 07:16 | 57.42276 | -135.40040 | 12990 ft | 352 kts | 15° |
| 2026-04-25 07:16 | 57.44634 | -135.38791 | 12988 ft | 352 kts | 15° |
| 2026-04-25 07:16 | 57.46988 | -135.37543 | 13015 ft | 352 kts | 15° |
| 2026-04-25 07:17 | 57.49345 | -135.36292 | 13020 ft | 352 kts | 15° |
| 2026-04-25 07:17 | 57.51700 | -135.35038 | 13015 ft | 352 kts | 15° |
| 2026-04-25 07:17 | 57.54054 | -135.33785 | 13016 ft | 352 kts | 15° |
| 2026-04-25 07:17 | 57.56414 | -135.32527 | 13013 ft | 353 kts | 15° |
| 2026-04-25 07:18 | 57.58774 | -135.31268 | 13029 ft | 353 kts | 15° |
| 2026-04-25 07:18 | 57.61132 | -135.30007 | 13017 ft | 353 kts | 15° |
| 2026-04-25 07:18 | 57.63471 | -135.28755 | 13013 ft | 344 kts | 15° |
| 2026-04-25 07:18 | 57.65727 | -135.27546 | 12901 ft | 333 kts | 15° |
| 2026-04-25 07:19 | 57.67923 | -135.26367 | 12712 ft | 325 kts | 15° |
| 2026-04-25 07:19 | 57.70083 | -135.25207 | 12371 ft | 322 kts | 14° |
| 2026-04-25 07:19 | 57.72226 | -135.24054 | 12039 ft | 319 kts | 14° |
| 2026-04-25 07:19 | 57.74346 | -135.22912 | 11719 ft | 316 kts | 14° |
| 2026-04-25 07:20 | 57.76443 | -135.21781 | 11442 ft | 312 kts | 14° |
| 2026-04-25 07:20 | 57.78520 | -135.20659 | 11106 ft | 310 kts | 14° |
| 2026-04-25 07:20 | 57.80585 | -135.19543 | 10779 ft | 308 kts | 14° |
| 2026-04-25 07:20 | 57.82639 | -135.18431 | 10459 ft | 307 kts | 14° |
| 2026-04-25 07:21 | 57.84658 | -135.17337 | 10177 ft | 304 kts | 14° |
| 2026-04-25 07:21 | 57.86657 | -135.16252 | 10015 ft | 295 kts | 14° |
| 2026-04-25 07:21 | 57.88606 | -135.15193 | 9784 ft | 289 kts | 14° |
| 2026-04-25 07:21 | 57.90532 | -135.14145 | 9464 ft | 287 kts | 14° |
| 2026-04-25 07:22 | 57.92445 | -135.13103 | 9145 ft | 286 kts | 14° |
| 2026-04-25 07:22 | 57.94349 | -135.12066 | 8847 ft | 284 kts | 14° |
| 2026-04-25 07:22 | 57.96241 | -135.11033 | 8543 ft | 282 kts | 14° |
| 2026-04-25 07:22 | 57.98118 | -135.10007 | 8249 ft | 280 kts | 14° |
| 2026-04-25 07:23 | 57.99981 | -135.08990 | 7946 ft | 277 kts | 14° |
| 2026-04-25 07:23 | 58.01827 | -135.07979 | 7662 ft | 275 kts | 14° |
| 2026-04-25 07:23 | 58.03659 | -135.06976 | 7369 ft | 274 kts | 14° |
| 2026-04-25 07:23 | 58.05484 | -135.05975 | 7085 ft | 272 kts | 14° |
| 2026-04-25 07:24 | 58.07291 | -135.04974 | 6783 ft | 270 kts | 14° |
| 2026-04-25 07:24 | 58.08486 | -135.04311 | 6568 ft | 270 kts | 15° |
| 2026-04-25 07:24 | 58.10284 | -135.03315 | 6272 ft | 268 kts | 15° |
| 2026-04-25 07:24 | 58.12069 | -135.02324 | 5978 ft | 267 kts | 15° |
| 2026-04-25 07:25 | 58.13860 | -135.01320 | 5580 ft | 269 kts | 15° |
| 2026-04-25 07:25 | 58.15640 | -135.00338 | 5416 ft | 263 kts | 15° |
| 2026-04-25 07:25 | 58.17379 | -134.99360 | 5129 ft | 261 kts | 16° |
| 2026-04-25 07:25 | 58.19133 | -134.98353 | 4742 ft | 263 kts | 16° |
| 2026-04-25 07:26 | 58.20862 | -134.97379 | 4573 ft | 256 kts | 15° |
| 2026-04-25 07:26 | 58.22550 | -134.96449 | 4320 ft | 253 kts | 15° |
| 2026-04-25 07:26 | 58.24247 | -134.95537 | 4035 ft | 252 kts | 15° |
| 2026-04-25 07:26 | 58.25910 | -134.94602 | 3820 ft | 247 kts | 16° |
| 2026-04-25 07:27 | 58.27537 | -134.93689 | 3647 ft | 241 kts | 16° |
| 2026-04-25 07:27 | 58.29113 | -134.92830 | 3555 ft | 230 kts | 15° |
| 2026-04-25 07:27 | 58.30598 | -134.92022 | 3499 ft | 214 kts | 16° |
| 2026-04-25 07:27 | 58.31988 | -134.91246 | 3318 ft | 203 kts | 17° |
| 2026-04-25 07:28 | 58.33312 | -134.90452 | 3111 ft | 195 kts | 18° |
| 2026-04-25 07:28 | 58.34565 | -134.89634 | 2932 ft | 186 kts | 18° |
| 2026-04-25 07:28 | 58.35690 | -134.88558 | 2694 ft | 181 kts | 43° |
| 2026-04-25 07:28 | 58.36199 | -134.86417 | 2308 ft | 183 kts | 88° |
| 2026-04-25 07:29 | 58.36038 | -134.84009 | 2070 ft | 184 kts | 100° |
| 2026-04-25 07:29 | 58.35883 | -134.81588 | 1901 ft | 183 kts | 95° |
| 2026-04-25 07:29 | 58.35781 | -134.79218 | 1886 ft | 180 kts | 92° |
| 2026-04-25 07:29 | 58.35770 | -134.76824 | 1851 ft | 183 kts | 89° |
| 2026-04-25 07:30 | 58.35799 | -134.74384 | 1597 ft | 182 kts | 88° |
| 2026-04-25 07:30 | 58.35792 | -134.72033 | 1402 ft | 173 kts | 90° |
| 2026-04-25 07:30 | 58.35788 | -134.69832 | 1231 ft | 159 kts | 89° |
| 2026-04-25 07:30 | 58.35816 | -134.67815 | 1063 ft | 149 kts | 88° |
| 2026-04-25 07:31 | 58.35832 | -134.65914 | 856 ft | 144 kts | 90° |
| 2026-04-25 07:31 | 58.35826 | -134.64020 | 634 ft | 138 kts | 88° |
| 2026-04-25 07:31 | 58.35913 | -134.62204 | 330 ft | 144 kts | 83° |
| 2026-04-25 07:31 | 58.35867 | -134.60309 | 124 ft | 143 kts | 102° |
| 2026-04-25 07:32 | 58.35628 | -134.58572 | 36 ft | 120 kts | 104° |
| 2026-04-25 07:32 | 58.35526 | -134.57850 | 156 ft | 84 kts | 104° |
| 2026-04-25 07:32 | 58.35422 | -134.57109 | 156 ft | 27 kts | 105° |
| 2026-04-25 07:32 | 58.35939 | -134.61692 | 390 ft | 146 kts | 86° |
| 2026-04-25 07:33 | 58.35802 | -134.59816 | 198 ft | 142 kts | 104° |
| 2026-04-25 07:33 | 58.35573 | -134.58182 | 154 ft | 105 kts | 105° |
| 2026-04-25 07:33 | 58.35441 | -134.57238 | 157 ft | 85 kts | 104° |